createdAt,value
2022-12-19T00:00:09.730Z,-0.16
2022-12-19T00:02:42.685Z,-0.22
2022-12-19T00:05:11.377Z,-0.17
2022-12-19T00:07:39.052Z,-0.17
2022-12-19T00:10:07.943Z,-0.15
2022-12-19T00:12:35.681Z,-0.19
2022-12-19T00:15:03.479Z,-0.18
2022-12-19T00:17:31.164Z,-0.12
2022-12-19T00:19:58.863Z,-0.13
2022-12-19T00:22:26.808Z,-0.11
2022-12-19T00:24:54.484Z,-0.03
2022-12-19T00:27:22.213Z,0.00
2022-12-19T00:29:49.877Z,0.01
2022-12-19T00:32:17.463Z,0.12
2022-12-19T00:34:45.089Z,0.16
2022-12-19T00:37:13.011Z,0.10
2022-12-19T00:39:40.697Z,0.13
2022-12-19T00:42:08.495Z,0.15
2022-12-19T00:44:36.156Z,0.17
2022-12-19T00:47:03.865Z,0.16
2022-12-19T00:49:31.530Z,0.16
2022-12-19T00:52:01.109Z,0.11
2022-12-19T00:54:28.774Z,0.11
2022-12-19T00:56:56.872Z,0.12
2022-12-19T00:59:26.723Z,0.12
2022-12-19T01:01:54.907Z,0.12
2022-12-19T01:04:31.708Z,0.08
2022-12-19T01:07:02.964Z,0.03
2022-12-19T01:09:31.839Z,-0.02
2022-12-19T01:12:18.043Z,-0.02
2022-12-19T01:14:46.003Z,-0.01
2022-12-19T01:17:13.672Z,0.01
2022-12-19T01:19:44.370Z,0.03
2022-12-19T01:22:13.655Z,0.05
2022-12-19T01:24:42.327Z,0.02
2022-12-19T01:27:10.203Z,-0.01
2022-12-19T01:29:52.839Z,-0.03
2022-12-19T01:32:21.742Z,-0.04
2022-12-19T01:34:49.463Z,-0.07
2022-12-19T01:37:17.216Z,-0.03
2022-12-19T01:39:46.022Z,-0.02
2022-12-19T01:42:23.191Z,-0.06
2022-12-19T01:45:33.393Z,-0.07
2022-12-19T01:48:08.330Z,-0.08
2022-12-19T01:50:44.273Z,-0.03
2022-12-19T01:53:34.635Z,-0.04
2022-12-19T01:56:10.144Z,-0.06
2022-12-19T01:58:41.349Z,-0.05
2022-12-19T02:01:09.173Z,-0.04
2022-12-19T02:03:40.054Z,-0.04
2022-12-19T02:06:09.453Z,-0.03
2022-12-19T02:08:38.473Z,-0.03
2022-12-19T02:11:06.287Z,0.03
2022-12-19T02:13:34.415Z,-0.05
2022-12-19T02:16:49.089Z,0.00
2022-12-19T02:19:16.704Z,0.04
2022-12-19T02:21:54.959Z,0.15
2022-12-19T02:24:43.682Z,0.15
2022-12-19T02:27:48.766Z,0.09
2022-12-19T02:30:35.433Z,-0.05
2022-12-19T02:33:04.915Z,-0.08
2022-12-19T02:35:41.489Z,-0.02
2022-12-19T02:38:33.115Z,0.04
2022-12-19T02:41:46.850Z,0.04
2022-12-19T02:44:21.527Z,0.07
2022-12-19T02:46:51.367Z,0.14
2022-12-19T02:49:21.865Z,0.17
2022-12-19T02:51:57.953Z,0.21
2022-12-19T02:54:26.481Z,0.22
2022-12-19T02:57:06.273Z,0.22
2022-12-19T03:00:03.355Z,0.23
2022-12-19T03:02:59.819Z,0.32
2022-12-19T03:05:48.431Z,0.35
2022-12-19T03:08:21.965Z,0.36
2022-12-19T03:11:09.858Z,0.36
2022-12-19T03:13:58.219Z,0.40
2022-12-19T03:16:26.692Z,0.44
2022-12-19T03:18:54.977Z,0.41
2022-12-19T03:21:35.878Z,0.45
2022-12-19T03:24:05.800Z,0.45
2022-12-19T03:26:38.908Z,0.49
2022-12-19T03:29:15.965Z,0.49
2022-12-19T03:31:46.294Z,0.48
2022-12-19T03:34:22.732Z,0.46
2022-12-19T03:36:57.168Z,0.47
2022-12-19T03:39:28.042Z,0.39
2022-12-19T03:42:16.271Z,0.35
2022-12-19T03:44:44.795Z,0.32
2022-12-19T03:47:30.319Z,0.28
2022-12-19T03:49:58.283Z,0.27
2022-12-19T03:52:31.919Z,0.29
2022-12-19T03:55:12.019Z,0.35
2022-12-19T03:58:05.611Z,0.30
2022-12-19T04:00:37.667Z,0.31
2022-12-19T04:03:06.797Z,0.35
2022-12-19T04:05:36.623Z,0.41
2022-12-19T04:08:08.848Z,0.47
2022-12-19T04:10:51.539Z,0.49
2022-12-19T04:13:24.866Z,0.54
2022-12-19T04:16:08.528Z,0.58
2022-12-19T04:18:37.553Z,0.61
2022-12-19T04:21:12.781Z,0.61
2022-12-19T04:23:46.486Z,0.65
2022-12-19T04:26:17.020Z,0.69
2022-12-19T04:28:51.931Z,0.79
2022-12-19T04:31:21.537Z,0.81
2022-12-19T04:33:49.452Z,0.85
2022-12-19T04:36:17.295Z,0.82
2022-12-19T04:38:45.221Z,0.80
2022-12-19T04:41:13.610Z,0.75
2022-12-19T04:43:41.316Z,0.77
2022-12-19T04:46:09.010Z,0.82
2022-12-19T04:48:38.078Z,0.90
2022-12-19T04:51:06.436Z,0.95
2022-12-19T04:53:34.365Z,1.02
2022-12-19T04:56:07.232Z,1.04
2022-12-19T04:58:36.099Z,1.03
2022-12-19T05:01:05.735Z,1.06
2022-12-19T05:03:34.300Z,1.11
2022-12-19T05:06:13.500Z,1.11
2022-12-19T05:08:43.700Z,1.13
2022-12-19T05:11:19.259Z,1.08
2022-12-19T05:13:47.736Z,1.14
2022-12-19T05:16:16.902Z,1.12
2022-12-19T05:18:45.294Z,1.11
2022-12-19T05:21:13.563Z,1.06
2022-12-19T05:23:41.591Z,0.99
2022-12-19T05:26:09.771Z,1.00
2022-12-19T05:28:37.544Z,0.96
2022-12-19T05:31:11.108Z,0.95
2022-12-19T05:33:39.510Z,0.89
2022-12-19T05:36:08.131Z,0.86
2022-12-19T05:38:36.571Z,0.83
2022-12-19T05:41:16.017Z,0.83
2022-12-19T05:43:50.578Z,0.87
2022-12-19T05:46:18.950Z,0.90
2022-12-19T05:48:47.106Z,0.93
2022-12-19T05:51:15.376Z,0.99
2022-12-19T05:53:44.458Z,1.03
2022-12-19T05:56:16.391Z,1.04
2022-12-19T05:58:45.983Z,1.07
2022-12-19T06:01:18.013Z,1.04
2022-12-19T06:03:46.294Z,1.08
2022-12-19T06:06:17.401Z,1.09
2022-12-19T06:08:45.524Z,1.06
2022-12-19T06:11:14.715Z,1.03
2022-12-19T06:13:42.754Z,1.02
2022-12-19T06:16:15.950Z,0.98
2022-12-19T06:18:45.780Z,0.94
2022-12-19T06:21:16.690Z,0.95
2022-12-19T06:23:44.996Z,0.91
2022-12-19T06:26:19.621Z,0.89
2022-12-19T06:28:49.720Z,0.86
2022-12-19T06:31:17.966Z,0.82
2022-12-19T06:33:46.041Z,0.79
2022-12-19T06:36:27.398Z,0.75
2022-12-19T06:38:57.113Z,0.73
2022-12-19T06:41:44.067Z,0.74
2022-12-19T06:44:14.723Z,0.75
2022-12-19T06:46:43.315Z,0.80
2022-12-19T06:49:12.305Z,0.85
2022-12-19T06:51:40.703Z,0.86
2022-12-19T06:54:08.459Z,0.87
2022-12-19T06:56:38.179Z,0.91
2022-12-19T06:59:06.897Z,0.94
2022-12-19T07:01:40.554Z,0.95
2022-12-19T07:04:12.206Z,0.91
2022-12-19T07:06:43.345Z,0.86
2022-12-19T07:09:13.780Z,0.90
2022-12-19T07:11:41.431Z,0.88
2022-12-19T07:14:09.112Z,0.87
2022-12-19T07:16:38.960Z,0.92
2022-12-19T07:19:08.896Z,0.97
2022-12-19T07:21:37.487Z,0.97
2022-12-19T07:24:06.320Z,1.02
2022-12-19T07:26:35.732Z,1.08
2022-12-19T07:29:03.740Z,1.11
2022-12-19T07:31:31.524Z,1.18
2022-12-19T07:33:59.742Z,1.28
2022-12-19T07:36:27.812Z,1.30
2022-12-19T07:38:55.564Z,1.33
2022-12-19T07:41:23.288Z,1.35
2022-12-19T07:43:51.021Z,1.36
2022-12-19T07:46:18.755Z,1.41
2022-12-19T07:48:46.453Z,1.38
2022-12-19T07:51:14.318Z,1.39
2022-12-19T07:53:41.977Z,1.41
2022-12-19T07:56:09.855Z,1.38
2022-12-19T07:58:37.466Z,1.36
2022-12-19T08:01:05.327Z,1.39
2022-12-19T08:03:34.754Z,1.42
2022-12-19T08:06:04.532Z,1.43
2022-12-19T08:08:32.782Z,1.34
2022-12-19T08:11:11.844Z,1.32
2022-12-19T08:13:46.140Z,1.36
2022-12-19T08:16:14.918Z,1.40
2022-12-19T08:18:42.841Z,1.37
2022-12-19T08:21:11.324Z,1.33
2022-12-19T08:23:42.287Z,1.33
2022-12-19T08:26:13.190Z,1.30
2022-12-19T08:28:41.095Z,1.31
2022-12-19T08:31:11.165Z,1.26
2022-12-19T08:33:39.630Z,1.25
2022-12-19T08:36:09.485Z,1.27
2022-12-19T08:38:38.165Z,1.34
2022-12-19T08:41:05.961Z,1.41
2022-12-19T08:43:34.920Z,1.49
2022-12-19T08:46:03.170Z,1.53
2022-12-19T08:48:31.975Z,1.60
2022-12-19T08:51:02.508Z,1.65
2022-12-19T08:53:32.196Z,1.70
2022-12-19T08:56:02.588Z,1.73
2022-12-19T08:58:31.471Z,1.73
2022-12-19T09:01:05.774Z,1.73
2022-12-19T09:03:51.273Z,1.73
2022-12-19T09:06:21.903Z,1.79
2022-12-19T09:08:49.721Z,1.79
2022-12-19T09:11:20.818Z,1.80
2022-12-19T09:13:49.572Z,1.80
2022-12-19T09:16:23.460Z,1.81
2022-12-19T09:18:56.209Z,1.81
2022-12-19T09:21:26.388Z,1.84
2022-12-19T09:23:57.322Z,1.85
2022-12-19T09:26:29.066Z,1.90
2022-12-19T09:29:02.263Z,1.83
2022-12-19T09:31:30.766Z,1.84
2022-12-19T09:33:58.793Z,1.89
2022-12-19T09:36:26.737Z,1.92
2022-12-19T09:38:56.927Z,1.95
2022-12-19T09:42:02.073Z,1.95
2022-12-19T09:44:32.701Z,1.98
2022-12-19T09:47:03.754Z,1.97
2022-12-19T09:49:41.969Z,1.94
2022-12-19T09:52:39.317Z,1.88
2022-12-19T09:55:29.530Z,1.84
2022-12-19T09:58:06.688Z,1.83
2022-12-19T10:00:43.368Z,1.87
2022-12-19T10:03:39.726Z,1.93
2022-12-19T10:07:20.388Z,1.94
2022-12-19T10:09:42.711Z,1.97
2022-12-19T10:12:45.063Z,1.98
2022-12-19T10:15:10.715Z,2.04
2022-12-19T10:17:56.919Z,2.09
2022-12-19T10:20:33.386Z,2.21
2022-12-19T10:23:22.847Z,2.34
2022-12-19T10:26:04.780Z,2.42
2022-12-19T10:28:47.296Z,2.47
2022-12-19T10:31:43.095Z,2.51
2022-12-19T10:34:21.431Z,2.47
2022-12-19T10:40:05.619Z,2.52
2022-12-19T10:42:56.424Z,2.58
2022-12-19T10:45:38.764Z,2.60
2022-12-19T10:48:14.421Z,2.62
2022-12-19T10:50:42.191Z,2.56
2022-12-19T10:53:14.615Z,2.54
2022-12-19T10:55:51.552Z,2.54
2022-12-19T10:58:23.976Z,2.57
2022-12-19T11:01:13.340Z,2.53
2022-12-19T11:03:44.226Z,2.59
2022-12-19T11:06:35.873Z,2.65
2022-12-19T11:09:24.570Z,2.71
2022-12-19T11:15:38.280Z,2.76
2022-12-19T11:20:02.735Z,2.75
2022-12-19T11:27:48.698Z,2.73
2022-12-19T11:29:34.132Z,2.66
2022-12-19T11:30:21.351Z,2.71
2022-12-19T11:30:35.711Z,2.68
2022-12-19T11:32:42.741Z,2.67
2022-12-19T11:35:17.810Z,2.74
2022-12-19T11:38:07.822Z,2.73
2022-12-19T11:40:51.461Z,2.73
2022-12-19T11:43:44.449Z,2.69
2022-12-19T11:46:23.786Z,2.68
2022-12-19T11:48:57.953Z,2.69
2022-12-19T11:51:25.585Z,2.63
2022-12-19T11:54:15.865Z,2.59
2022-12-19T11:56:43.822Z,2.62
2022-12-19T11:59:33.459Z,2.63
2022-12-19T12:02:01.243Z,2.60
2022-12-19T12:05:02.057Z,2.59
2022-12-19T12:09:09.530Z,2.64
2022-12-19T12:13:55.283Z,2.70
2022-12-19T12:22:27.863Z,2.70
2022-12-19T12:28:53.397Z,2.74
2022-12-19T12:31:10.258Z,2.77
2022-12-19T12:31:26.509Z,2.76
2022-12-19T12:31:53.300Z,2.78
2022-12-19T12:31:58.825Z,2.85
2022-12-19T12:35:30.666Z,2.95
2022-12-19T12:41:02.382Z,3.07
2022-12-19T12:44:08.999Z,3.16
2022-12-19T12:46:45.019Z,3.16
2022-12-19T12:49:41.586Z,3.18
2022-12-19T12:52:18.555Z,3.17
2022-12-19T12:54:49.947Z,3.18
2022-12-19T12:57:36.269Z,3.20
2022-12-19T13:00:31.594Z,3.16
2022-12-19T13:02:59.242Z,3.16
2022-12-19T13:05:39.137Z,3.20
2022-12-19T13:08:33.005Z,3.24
2022-12-19T13:11:04.431Z,3.19
2022-12-19T13:13:51.318Z,3.24
2022-12-19T13:16:46.936Z,3.20
2022-12-19T13:19:22.583Z,3.26
2022-12-19T13:22:24.069Z,3.30
2022-12-19T13:24:54.895Z,3.35
2022-12-19T13:27:22.640Z,3.38
2022-12-19T13:30:02.338Z,3.33
2022-12-19T13:32:42.252Z,3.39
2022-12-19T13:35:48.733Z,3.38
2022-12-19T13:40:01.588Z,3.41
2022-12-19T13:40:57.987Z,3.43
2022-12-19T13:43:47.135Z,3.38
2022-12-19T13:46:40.567Z,3.40
2022-12-19T13:49:34.707Z,3.41
2022-12-19T13:52:04.649Z,3.43
2022-12-19T13:54:37.768Z,3.44
2022-12-19T13:57:31.139Z,3.45
2022-12-19T14:00:03.033Z,3.42
2022-12-19T14:02:33.519Z,3.42
2022-12-19T14:06:16.873Z,3.47
2022-12-19T14:08:29.131Z,3.46
2022-12-19T14:11:46.787Z,3.40
2022-12-19T14:14:17.419Z,3.40
2022-12-19T14:16:47.560Z,3.43
2022-12-19T14:19:28.817Z,3.42
2022-12-19T14:22:15.645Z,3.41
2022-12-19T14:25:45.123Z,3.40
2022-12-19T14:28:21.684Z,3.40
2022-12-19T14:31:00.662Z,3.39
2022-12-19T14:33:44.124Z,3.36
2022-12-19T14:36:28.763Z,3.31
2022-12-19T14:39:25.381Z,3.27
2022-12-19T14:42:07.502Z,3.21
2022-12-19T14:52:26.182Z,3.13
2022-12-19T14:54:02.818Z,3.05
2022-12-19T14:54:17.435Z,3.07
2022-12-19T14:54:43.934Z,2.98
2022-12-19T14:56:33.652Z,2.91
2022-12-19T14:59:07.143Z,2.85
2022-12-19T15:01:36.824Z,2.81
2022-12-19T15:04:52.515Z,2.80
2022-12-19T15:07:14.314Z,2.76
2022-12-19T15:10:58.074Z,2.78
2022-12-19T15:14:50.608Z,2.76
2022-12-19T15:16:01.625Z,2.76
2022-12-19T15:18:43.497Z,2.73
2022-12-19T15:21:13.947Z,2.74
2022-12-19T15:23:42.017Z,2.75
2022-12-19T15:26:18.339Z,2.75
2022-12-19T15:28:54.614Z,2.74
2022-12-19T15:31:36.237Z,2.63
2022-12-19T15:34:36.819Z,2.63
2022-12-19T15:37:05.916Z,2.63
2022-12-19T15:39:33.640Z,2.58
2022-12-19T15:42:02.491Z,2.61
2022-12-19T15:44:32.841Z,2.62
2022-12-19T15:47:01.831Z,2.66
2022-12-19T15:49:29.611Z,2.63
2022-12-19T15:51:57.335Z,2.67
2022-12-19T15:57:22.100Z,2.63
2022-12-19T15:59:50.247Z,2.59
2022-12-19T16:02:23.407Z,2.55
2022-12-19T16:04:55.524Z,2.50
2022-12-19T16:07:27.813Z,2.44
2022-12-19T16:09:56.694Z,2.41
2022-12-19T16:12:37.813Z,2.35
2022-12-19T16:15:07.704Z,2.32
2022-12-19T16:17:35.452Z,2.29
2022-12-19T16:20:03.133Z,2.28
2022-12-19T16:22:31.052Z,2.25
2022-12-19T16:24:58.833Z,2.21
2022-12-19T16:27:31.885Z,2.17
2022-12-19T16:30:11.112Z,2.19
2022-12-19T16:32:41.262Z,2.16
2022-12-19T16:35:17.537Z,2.17
2022-12-19T16:37:52.085Z,2.14
2022-12-19T16:40:29.184Z,2.15
2022-12-19T16:43:29.858Z,2.13
2022-12-19T16:46:01.503Z,2.09
2022-12-19T16:48:31.208Z,2.06
2022-12-19T16:51:00.290Z,2.03
2022-12-19T16:53:28.171Z,2.01
2022-12-19T16:55:57.475Z,2.00
2022-12-19T16:58:28.936Z,2.01
2022-12-19T17:00:57.286Z,2.01
2022-12-19T17:03:42.233Z,1.99
2022-12-19T17:06:17.939Z,1.92
2022-12-19T17:08:46.578Z,1.86
2022-12-19T17:11:26.409Z,1.85
2022-12-19T17:14:01.674Z,1.81
2022-12-19T17:16:30.976Z,1.79
2022-12-19T17:19:00.178Z,1.72
2022-12-19T17:21:27.923Z,1.66
2022-12-19T17:23:55.721Z,1.64
2022-12-19T17:26:23.408Z,1.66
2022-12-19T17:28:51.146Z,1.67
2022-12-19T17:31:29.251Z,1.71
2022-12-19T17:33:58.897Z,1.73
2022-12-19T17:36:34.745Z,1.74
2022-12-19T17:39:18.764Z,1.72
2022-12-19T17:41:46.488Z,1.65
2022-12-19T17:44:14.198Z,1.58
2022-12-19T17:46:42.061Z,1.55
2022-12-19T17:49:39.688Z,1.51
2022-12-19T17:52:17.862Z,1.53
2022-12-19T17:54:46.149Z,1.53
2022-12-19T17:57:16.492Z,1.56
2022-12-19T17:59:44.638Z,1.57
2022-12-19T18:02:23.910Z,1.59
2022-12-19T18:04:52.335Z,1.62
2022-12-19T18:07:20.461Z,1.69
2022-12-19T18:09:49.764Z,1.69
2022-12-19T18:12:17.696Z,1.73
2022-12-19T18:14:45.476Z,1.75
2022-12-19T18:17:14.896Z,1.76
2022-12-19T18:19:42.669Z,1.75
2022-12-19T18:22:14.644Z,1.73
2022-12-19T18:24:42.970Z,1.71
2022-12-19T18:27:10.620Z,1.74
2022-12-19T18:29:38.343Z,1.72
2022-12-19T18:32:06.204Z,1.71
2022-12-19T18:34:34.732Z,1.75
2022-12-19T18:37:03.261Z,1.76
2022-12-19T18:39:33.067Z,1.72
2022-12-19T18:42:00.667Z,1.77
2022-12-19T18:44:28.555Z,1.79
2022-12-19T18:46:56.331Z,1.80
2022-12-19T18:49:24.143Z,1.73
2022-12-19T18:51:51.868Z,1.66
2022-12-19T18:54:22.502Z,1.58
2022-12-19T18:56:50.305Z,1.48
2022-12-19T18:59:18.176Z,1.39
2022-12-19T19:01:48.187Z,1.34
2022-12-19T19:04:18.766Z,1.32
2022-12-19T19:06:51.649Z,1.31
2022-12-19T19:09:21.567Z,1.23
2022-12-19T19:11:49.606Z,1.21
2022-12-19T19:14:17.362Z,1.18
2022-12-19T19:16:45.166Z,1.17
2022-12-19T19:19:18.875Z,1.10
2022-12-19T19:21:46.793Z,1.09
2022-12-19T19:24:22.846Z,1.10
2022-12-19T19:26:50.783Z,1.13
2022-12-19T19:29:20.835Z,1.19
2022-12-19T19:31:51.174Z,1.24
2022-12-19T19:34:29.863Z,1.30
2022-12-19T19:37:02.056Z,1.31
2022-12-19T19:39:34.399Z,1.21
2022-12-19T19:42:02.658Z,1.18
2022-12-19T19:44:31.175Z,1.19
2022-12-19T19:46:59.101Z,1.16
2022-12-19T19:49:26.929Z,1.16
2022-12-19T19:52:00.497Z,1.13
2022-12-19T19:54:30.335Z,1.18
2022-12-19T19:57:01.040Z,1.21
2022-12-19T19:59:32.416Z,1.27
2022-12-19T20:02:00.349Z,1.35
2022-12-19T20:04:28.234Z,1.39
2022-12-19T20:06:56.024Z,1.39
2022-12-19T20:09:23.691Z,1.36
2022-12-19T20:11:51.334Z,1.32
2022-12-19T20:14:19.054Z,1.36
2022-12-19T20:16:46.782Z,1.36
2022-12-19T20:19:16.745Z,1.34
2022-12-19T20:21:44.635Z,1.39
2022-12-19T20:24:13.849Z,1.42
2022-12-19T20:26:41.671Z,1.47
2022-12-19T20:29:09.611Z,1.48
2022-12-19T20:31:37.414Z,1.53
2022-12-19T20:34:05.931Z,1.55
2022-12-19T20:36:34.682Z,1.57
2022-12-19T20:39:02.494Z,1.54
2022-12-19T20:41:30.159Z,1.44
2022-12-19T20:43:58.521Z,1.42
2022-12-19T20:46:26.328Z,1.39
2022-12-19T20:48:54.127Z,1.37
2022-12-19T20:51:23.082Z,1.35
2022-12-19T20:53:54.770Z,1.28
2022-12-19T20:56:24.520Z,1.18
2022-12-19T20:58:52.730Z,1.15
2022-12-19T21:01:22.744Z,1.17
2022-12-19T21:03:51.789Z,1.18
2022-12-19T21:06:21.747Z,1.20
2022-12-19T21:08:49.796Z,1.25
2022-12-19T21:11:17.594Z,1.30
2022-12-19T21:13:45.641Z,1.32
2022-12-19T21:16:16.717Z,1.38
2022-12-19T21:18:46.080Z,1.37
2022-12-19T21:21:17.960Z,1.41
2022-12-19T21:23:46.921Z,1.43
2022-12-19T21:26:14.890Z,1.39
2022-12-19T21:28:43.187Z,1.37
2022-12-19T21:31:20.986Z,1.36
2022-12-19T21:33:49.406Z,1.38
2022-12-19T21:36:22.635Z,1.36
2022-12-19T21:38:52.870Z,1.37
2022-12-19T21:41:20.915Z,1.33
2022-12-19T21:43:52.824Z,1.31
2022-12-19T21:46:22.934Z,1.31
2022-12-19T21:48:52.379Z,1.27
2022-12-19T21:51:22.517Z,1.28
2022-12-19T21:53:55.219Z,1.25
2022-12-19T21:56:29.878Z,1.26
2022-12-19T21:59:03.412Z,1.23
2022-12-19T22:01:32.128Z,1.20
2022-12-19T22:04:08.693Z,1.22
2022-12-19T22:06:38.385Z,1.24
2022-12-19T22:09:08.433Z,1.30
2022-12-19T22:11:37.426Z,1.32
2022-12-19T22:14:06.199Z,1.35
2022-12-19T22:16:35.009Z,1.43
2022-12-19T22:19:03.625Z,1.43
2022-12-19T22:21:32.297Z,1.46
2022-12-19T22:24:01.490Z,1.46
2022-12-19T22:26:31.195Z,1.47
2022-12-19T22:28:59.867Z,1.52
2022-12-19T22:31:33.647Z,1.52
2022-12-19T22:34:11.386Z,1.54
2022-12-19T22:36:40.958Z,1.52
2022-12-19T22:39:12.115Z,1.52
2022-12-19T22:41:41.286Z,1.54
2022-12-19T22:44:15.632Z,1.58
2022-12-19T22:46:43.720Z,1.60
2022-12-19T22:49:13.322Z,1.57
2022-12-19T22:51:41.522Z,1.59
2022-12-19T22:54:10.141Z,1.61
2022-12-19T22:56:38.663Z,1.62
2022-12-19T22:59:08.814Z,1.66
2022-12-19T23:01:39.759Z,1.71
2022-12-19T23:04:09.524Z,1.76
2022-12-19T23:06:38.738Z,1.77
2022-12-19T23:09:08.204Z,1.74
2022-12-19T23:11:39.466Z,1.73
2022-12-19T23:14:09.089Z,1.68
2022-12-19T23:16:36.820Z,1.60
2022-12-19T23:19:06.372Z,1.60
2022-12-19T23:21:34.126Z,1.59
2022-12-19T23:24:01.915Z,1.60
2022-12-19T23:26:35.617Z,1.66
2022-12-19T23:29:06.487Z,1.71
2022-12-19T23:31:34.956Z,1.73
2022-12-19T23:34:03.192Z,1.77
2022-12-19T23:39:18.921Z,1.81
2022-12-19T23:41:46.625Z,1.80
2022-12-19T23:44:14.493Z,1.75
2022-12-19T23:46:42.478Z,1.70
2022-12-19T23:49:10.152Z,1.66
2022-12-19T23:51:37.869Z,1.68
2022-12-19T23:54:05.716Z,1.68
2022-12-19T23:56:33.745Z,1.70
2022-12-19T23:59:02.400Z,1.65
